sensor_id;sensor_type;location;lat;lon;timestamp;temperature;humidity
831;DHT22;397;50.564;7.272;2023-03-31T00:02:10;12.30;99.90
831;DHT22;397;50.564;7.272;2023-03-31T00:04:41;12.30;99.90
831;DHT22;397;50.564;7.272;2023-03-31T00:07:14;12.40;99.90
831;DHT22;397;50.564;7.272;2023-03-31T00:09:42;12.40;99.90
831;DHT22;397;50.564;7.272;2023-03-31T00:12:14;12.40;99.90
831;DHT22;397;50.564;7.272;2023-03-31T00:14:42;12.40;99.90
831;DHT22;397;50.564;7.272;2023-03-31T00:17:11;12.40;99.90
831;DHT22;397;50.564;7.272;2023-03-31T00:19:39;12.40;99.90
831;DHT22;397;50.564;7.272;2023-03-31T00:22:08;12.30;99.90
831;DHT22;397;50.564;7.272;2023-03-31T00:24:35;12.30;99.90
831;DHT22;397;50.564;7.272;2023-03-31T00:27:04;12.40;99.90
831;DHT22;397;50.564;7.272;2023-03-31T00:29:32;12.30;99.90
831;DHT22;397;50.564;7.272;2023-03-31T00:32:01;12.30;99.90
831;DHT22;397;50.564;7.272;2023-03-31T00:34:29;12.30;99.90
831;DHT22;397;50.564;7.272;2023-03-31T00:36:57;12.30;99.90
831;DHT22;397;50.564;7.272;2023-03-31T00:39:27;12.30;99.90
831;DHT22;397;50.564;7.272;2023-03-31T00:41:57;12.30;99.90
831;DHT22;397;50.564;7.272;2023-03-31T00:44:27;12.30;99.90
831;DHT22;397;50.564;7.272;2023-03-31T00:47:03;12.30;99.90
831;DHT22;397;50.564;7.272;2023-03-31T00:49:47;12.20;99.90
831;DHT22;397;50.564;7.272;2023-03-31T00:52:23;12.30;99.90
831;DHT22;397;50.564;7.272;2023-03-31T00:54:54;12.20;99.90
831;DHT22;397;50.564;7.272;2023-03-31T00:57:23;12.30;99.90
831;DHT22;397;50.564;7.272;2023-03-31T00:59:56;12.20;99.90
831;DHT22;397;50.564;7.272;2023-03-31T01:02:24;12.20;99.90
831;DHT22;397;50.564;7.272;2023-03-31T01:04:54;12.20;99.90
831;DHT22;397;50.564;7.272;2023-03-31T01:07:35;12.20;99.90
831;DHT22;397;50.564;7.272;2023-03-31T01:10:03;12.20;99.90
831;DHT22;397;50.564;7.272;2023-03-31T01:12:33;12.10;99.90
831;DHT22;397;50.564;7.272;2023-03-31T01:15:03;12.10;99.90
831;DHT22;397;50.564;7.272;2023-03-31T01:17:31;12.00;99.90
831;DHT22;397;50.564;7.272;2023-03-31T01:20:14;12.00;99.90
831;DHT22;397;50.564;7.272;2023-03-31T01:42:56;12.00;99.90
831;DHT22;397;50.564;7.272;2023-03-31T01:48:37;12.00;99.90
831;DHT22;397;50.564;7.272;2023-03-31T01:51:06;12.00;99.90
831;DHT22;397;50.564;7.272;2023-03-31T01:56:33;12.00;99.90
831;DHT22;397;50.564;7.272;2023-03-31T02:02:05;12.10;99.90
831;DHT22;397;50.564;7.272;2023-03-31T02:04:35;12.10;99.90
831;DHT22;397;50.564;7.272;2023-03-31T02:07:10;12.10;99.90
831;DHT22;397;50.564;7.272;2023-03-31T02:09:36;11.90;99.90
831;DHT22;397;50.564;7.272;2023-03-31T02:12:06;12.00;99.90
831;DHT22;397;50.564;7.272;2023-03-31T02:14:36;12.00;99.90
831;DHT22;397;50.564;7.272;2023-03-31T02:17:05;12.10;99.90
831;DHT22;397;50.564;7.272;2023-03-31T02:19:38;11.90;99.90
831;DHT22;397;50.564;7.272;2023-03-31T02:22:08;12.00;99.90
831;DHT22;397;50.564;7.272;2023-03-31T02:24:38;11.90;99.90
831;DHT22;397;50.564;7.272;2023-03-31T02:27:16;11.90;99.90
831;DHT22;397;50.564;7.272;2023-03-31T02:29:42;11.90;99.90
831;DHT22;397;50.564;7.272;2023-03-31T02:32:20;11.90;99.90
831;DHT22;397;50.564;7.272;2023-03-31T02:34:46;11.80;99.90
831;DHT22;397;50.564;7.272;2023-03-31T02:37:14;11.90;99.90
831;DHT22;397;50.564;7.272;2023-03-31T02:39:43;11.90;99.90
831;DHT22;397;50.564;7.272;2023-03-31T02:42:12;12.00;99.90
831;DHT22;397;50.564;7.272;2023-03-31T02:44:39;11.90;99.90
831;DHT22;397;50.564;7.272;2023-03-31T02:47:10;11.90;99.90
831;DHT22;397;50.564;7.272;2023-03-31T02:49:40;11.90;99.90
831;DHT22;397;50.564;7.272;2023-03-31T02:55:14;11.80;99.90
831;DHT22;397;50.564;7.272;2023-03-31T02:57:48;11.90;99.90
831;DHT22;397;50.564;7.272;2023-03-31T03:03:18;12.00;99.90
831;DHT22;397;50.564;7.272;2023-03-31T03:05:48;12.00;99.90
831;DHT22;397;50.564;7.272;2023-03-31T03:08:34;12.00;99.90
831;DHT22;397;50.564;7.272;2023-03-31T03:11:06;12.00;99.90
831;DHT22;397;50.564;7.272;2023-03-31T03:13:51;11.90;99.90
831;DHT22;397;50.564;7.272;2023-03-31T03:16:29;11.90;99.90
831;DHT22;397;50.564;7.272;2023-03-31T03:19:01;12.00;99.90
831;DHT22;397;50.564;7.272;2023-03-31T03:21:31;11.90;99.90
831;DHT22;397;50.564;7.272;2023-03-31T03:23:59;11.90;99.90
831;DHT22;397;50.564;7.272;2023-03-31T03:26:27;11.80;99.90
831;DHT22;397;50.564;7.272;2023-03-31T03:28:55;11.80;99.90
831;DHT22;397;50.564;7.272;2023-03-31T03:31:23;11.90;99.90
831;DHT22;397;50.564;7.272;2023-03-31T03:33:51;11.90;99.90
831;DHT22;397;50.564;7.272;2023-03-31T03:36:19;11.90;99.90
831;DHT22;397;50.564;7.272;2023-03-31T03:38:48;11.80;99.90
831;DHT22;397;50.564;7.272;2023-03-31T03:41:16;11.90;99.90
831;DHT22;397;50.564;7.272;2023-03-31T03:43:44;11.80;99.90
831;DHT22;397;50.564;7.272;2023-03-31T03:46:11;11.80;99.90
831;DHT22;397;50.564;7.272;2023-03-31T03:48:39;11.80;99.90
831;DHT22;397;50.564;7.272;2023-03-31T03:51:07;11.80;99.90
831;DHT22;397;50.564;7.272;2023-03-31T03:53:34;11.80;99.90
831;DHT22;397;50.564;7.272;2023-03-31T03:56:02;11.80;99.90
831;DHT22;397;50.564;7.272;2023-03-31T03:58:29;11.80;99.90
831;DHT22;397;50.564;7.272;2023-03-31T04:00:57;11.70;99.90
831;DHT22;397;50.564;7.272;2023-03-31T04:03:25;11.80;99.90
831;DHT22;397;50.564;7.272;2023-03-31T04:05:52;11.80;99.90
831;DHT22;397;50.564;7.272;2023-03-31T04:08:20;11.70;99.90
831;DHT22;397;50.564;7.272;2023-03-31T04:10:48;11.80;99.90
831;DHT22;397;50.564;7.272;2023-03-31T04:13:18;11.80;99.90
831;DHT22;397;50.564;7.272;2023-03-31T04:15:46;11.70;99.90
831;DHT22;397;50.564;7.272;2023-03-31T04:18:13;11.70;99.90
831;DHT22;397;50.564;7.272;2023-03-31T04:20:43;11.70;99.90
831;DHT22;397;50.564;7.272;2023-03-31T04:23:11;11.70;99.90
831;DHT22;397;50.564;7.272;2023-03-31T04:25:40;11.80;99.90
831;DHT22;397;50.564;7.272;2023-03-31T04:28:09;11.80;99.90
831;DHT22;397;50.564;7.272;2023-03-31T04:30:38;11.70;99.90
831;DHT22;397;50.564;7.272;2023-03-31T04:33:06;11.70;99.90
831;DHT22;397;50.564;7.272;2023-03-31T04:35:34;11.70;99.90
831;DHT22;397;50.564;7.272;2023-03-31T04:38:06;11.70;99.90
831;DHT22;397;50.564;7.272;2023-03-31T04:40:34;11.70;99.90
831;DHT22;397;50.564;7.272;2023-03-31T04:43:02;11.70;99.90
831;DHT22;397;50.564;7.272;2023-03-31T04:45:29;11.60;99.90
831;DHT22;397;50.564;7.272;2023-03-31T04:47:56;11.60;99.90
831;DHT22;397;50.564;7.272;2023-03-31T04:50:24;11.60;99.90
831;DHT22;397;50.564;7.272;2023-03-31T04:52:52;11.60;99.90
831;DHT22;397;50.564;7.272;2023-03-31T04:55:19;11.50;99.90
831;DHT22;397;50.564;7.272;2023-03-31T04:57:46;11.50;99.90
831;DHT22;397;50.564;7.272;2023-03-31T05:00:14;11.50;99.90
831;DHT22;397;50.564;7.272;2023-03-31T05:02:42;11.50;99.90
831;DHT22;397;50.564;7.272;2023-03-31T05:05:10;11.50;99.90
831;DHT22;397;50.564;7.272;2023-03-31T05:07:38;11.40;99.90
831;DHT22;397;50.564;7.272;2023-03-31T05:10:07;11.50;99.90
831;DHT22;397;50.564;7.272;2023-03-31T05:12:38;11.50;99.90
831;DHT22;397;50.564;7.272;2023-03-31T05:15:07;11.40;99.90
831;DHT22;397;50.564;7.272;2023-03-31T05:17:35;11.40;99.90
831;DHT22;397;50.564;7.272;2023-03-31T05:20:03;11.40;99.90
831;DHT22;397;50.564;7.272;2023-03-31T05:22:37;11.30;99.90
831;DHT22;397;50.564;7.272;2023-03-31T05:25:07;11.40;99.90
831;DHT22;397;50.564;7.272;2023-03-31T05:27:35;11.40;99.90
831;DHT22;397;50.564;7.272;2023-03-31T05:30:03;11.20;99.90
831;DHT22;397;50.564;7.272;2023-03-31T05:32:31;11.10;99.90
831;DHT22;397;50.564;7.272;2023-03-31T05:34:59;11.10;99.90
831;DHT22;397;50.564;7.272;2023-03-31T05:37:26;11.20;99.90
831;DHT22;397;50.564;7.272;2023-03-31T05:39:54;11.10;99.90
831;DHT22;397;50.564;7.272;2023-03-31T05:42:21;11.20;99.90
831;DHT22;397;50.564;7.272;2023-03-31T05:44:49;11.30;99.90
831;DHT22;397;50.564;7.272;2023-03-31T05:47:17;11.20;99.90
831;DHT22;397;50.564;7.272;2023-03-31T05:49:44;11.00;99.90
831;DHT22;397;50.564;7.272;2023-03-31T05:52:12;10.80;99.90
831;DHT22;397;50.564;7.272;2023-03-31T05:54:39;10.80;99.90
831;DHT22;397;50.564;7.272;2023-03-31T05:57:08;11.00;99.90
831;DHT22;397;50.564;7.272;2023-03-31T05:59:36;11.00;99.90
831;DHT22;397;50.564;7.272;2023-03-31T06:02:04;10.90;99.90
831;DHT22;397;50.564;7.272;2023-03-31T06:04:31;10.80;99.90
831;DHT22;397;50.564;7.272;2023-03-31T06:06:59;11.00;99.90
831;DHT22;397;50.564;7.272;2023-03-31T06:09:26;11.00;99.90
831;DHT22;397;50.564;7.272;2023-03-31T06:11:54;11.00;99.90
831;DHT22;397;50.564;7.272;2023-03-31T06:14:22;11.10;99.90
831;DHT22;397;50.564;7.272;2023-03-31T06:16:49;11.10;99.90
831;DHT22;397;50.564;7.272;2023-03-31T06:19:17;11.10;99.90
831;DHT22;397;50.564;7.272;2023-03-31T06:21:44;11.10;99.90
831;DHT22;397;50.564;7.272;2023-03-31T06:24:12;11.10;99.90
831;DHT22;397;50.564;7.272;2023-03-31T06:26:40;11.10;99.90
831;DHT22;397;50.564;7.272;2023-03-31T06:29:07;11.00;99.90
831;DHT22;397;50.564;7.272;2023-03-31T06:31:35;11.00;99.90
831;DHT22;397;50.564;7.272;2023-03-31T06:34:02;11.00;99.90
831;DHT22;397;50.564;7.272;2023-03-31T06:36:30;11.10;99.90
831;DHT22;397;50.564;7.272;2023-03-31T06:38:57;11.00;99.90
831;DHT22;397;50.564;7.272;2023-03-31T06:41:25;11.10;99.90
831;DHT22;397;50.564;7.272;2023-03-31T06:43:52;11.00;99.90
831;DHT22;397;50.564;7.272;2023-03-31T06:46:20;11.00;99.90
831;DHT22;397;50.564;7.272;2023-03-31T06:48:47;11.00;99.90
831;DHT22;397;50.564;7.272;2023-03-31T06:51:15;11.00;99.90
831;DHT22;397;50.564;7.272;2023-03-31T06:53:42;11.00;99.90
831;DHT22;397;50.564;7.272;2023-03-31T06:56:10;11.10;99.90
831;DHT22;397;50.564;7.272;2023-03-31T06:58:37;11.20;99.90
831;DHT22;397;50.564;7.272;2023-03-31T07:01:05;11.20;99.90
831;DHT22;397;50.564;7.272;2023-03-31T07:03:33;11.30;99.90
831;DHT22;397;50.564;7.272;2023-03-31T07:06:01;11.30;99.90
831;DHT22;397;50.564;7.272;2023-03-31T07:08:28;11.40;99.90
831;DHT22;397;50.564;7.272;2023-03-31T07:10:58;11.40;99.90
831;DHT22;397;50.564;7.272;2023-03-31T07:13:27;11.40;99.90
831;DHT22;397;50.564;7.272;2023-03-31T07:15:55;11.40;99.90
831;DHT22;397;50.564;7.272;2023-03-31T07:18:23;11.40;99.90
831;DHT22;397;50.564;7.272;2023-03-31T07:20:52;11.50;99.90
831;DHT22;397;50.564;7.272;2023-03-31T07:23:20;11.60;99.90
831;DHT22;397;50.564;7.272;2023-03-31T07:25:47;11.60;99.90
831;DHT22;397;50.564;7.272;2023-03-31T07:28:15;11.70;99.90
831;DHT22;397;50.564;7.272;2023-03-31T07:30:42;11.70;99.90
831;DHT22;397;50.564;7.272;2023-03-31T07:33:10;11.70;99.90
831;DHT22;397;50.564;7.272;2023-03-31T07:35:39;11.90;99.90
831;DHT22;397;50.564;7.272;2023-03-31T07:38:08;11.90;99.90
831;DHT22;397;50.564;7.272;2023-03-31T07:40:37;11.90;99.90
831;DHT22;397;50.564;7.272;2023-03-31T07:43:06;12.20;99.90
831;DHT22;397;50.564;7.272;2023-03-31T07:45:34;12.20;99.90
831;DHT22;397;50.564;7.272;2023-03-31T07:48:01;12.30;99.90
831;DHT22;397;50.564;7.272;2023-03-31T07:50:29;12.40;99.90
831;DHT22;397;50.564;7.272;2023-03-31T07:52:56;12.40;99.90
831;DHT22;397;50.564;7.272;2023-03-31T07:55:24;12.50;99.90
831;DHT22;397;50.564;7.272;2023-03-31T07:57:52;12.40;99.90
831;DHT22;397;50.564;7.272;2023-03-31T08:00:20;12.50;99.90
831;DHT22;397;50.564;7.272;2023-03-31T08:02:47;12.90;99.90
831;DHT22;397;50.564;7.272;2023-03-31T08:05:16;12.90;99.90
831;DHT22;397;50.564;7.272;2023-03-31T08:07:46;12.70;99.90
831;DHT22;397;50.564;7.272;2023-03-31T08:10:20;12.70;99.90
831;DHT22;397;50.564;7.272;2023-03-31T08:12:47;12.60;99.90
831;DHT22;397;50.564;7.272;2023-03-31T08:15:15;12.60;99.90
831;DHT22;397;50.564;7.272;2023-03-31T08:17:42;12.80;99.90
831;DHT22;397;50.564;7.272;2023-03-31T08:20:10;12.70;99.90
831;DHT22;397;50.564;7.272;2023-03-31T08:22:39;12.70;99.90
831;DHT22;397;50.564;7.272;2023-03-31T08:25:07;12.70;99.90
831;DHT22;397;50.564;7.272;2023-03-31T08:27:37;12.70;99.90
831;DHT22;397;50.564;7.272;2023-03-31T08:30:06;12.90;99.90
831;DHT22;397;50.564;7.272;2023-03-31T08:32:34;12.90;99.90
831;DHT22;397;50.564;7.272;2023-03-31T08:35:02;12.80;99.90
831;DHT22;397;50.564;7.272;2023-03-31T08:37:30;12.80;99.90
831;DHT22;397;50.564;7.272;2023-03-31T08:39:58;12.90;99.90
831;DHT22;397;50.564;7.272;2023-03-31T08:42:34;12.90;99.90
831;DHT22;397;50.564;7.272;2023-03-31T08:45:02;12.90;99.90
831;DHT22;397;50.564;7.272;2023-03-31T08:47:32;13.00;99.90
831;DHT22;397;50.564;7.272;2023-03-31T08:50:07;13.00;99.90
831;DHT22;397;50.564;7.272;2023-03-31T08:52:41;13.20;99.90
831;DHT22;397;50.564;7.272;2023-03-31T08:55:17;13.40;99.90
831;DHT22;397;50.564;7.272;2023-03-31T08:58:02;13.50;99.90
831;DHT22;397;50.564;7.272;2023-03-31T09:00:36;13.70;99.90
831;DHT22;397;50.564;7.272;2023-03-31T09:03:04;13.80;99.90
831;DHT22;397;50.564;7.272;2023-03-31T09:08:49;14.20;99.90
831;DHT22;397;50.564;7.272;2023-03-31T09:11:09;14.00;99.90
831;DHT22;397;50.564;7.272;2023-03-31T09:14:00;14.10;99.90
831;DHT22;397;50.564;7.272;2023-03-31T09:16:32;13.90;99.90
831;DHT22;397;50.564;7.272;2023-03-31T09:19:00;13.90;99.90
831;DHT22;397;50.564;7.272;2023-03-31T09:21:34;13.90;99.90
831;DHT22;397;50.564;7.272;2023-03-31T09:24:07;13.90;99.90
831;DHT22;397;50.564;7.272;2023-03-31T09:26:41;14.10;99.90
831;DHT22;397;50.564;7.272;2023-03-31T09:29:19;14.10;99.90
831;DHT22;397;50.564;7.272;2023-03-31T09:31:46;14.20;99.90
831;DHT22;397;50.564;7.272;2023-03-31T09:34:26;14.30;99.90
831;DHT22;397;50.564;7.272;2023-03-31T09:36:53;14.50;99.90
831;DHT22;397;50.564;7.272;2023-03-31T09:39:20;14.70;99.90
831;DHT22;397;50.564;7.272;2023-03-31T09:41:49;14.70;99.90
831;DHT22;397;50.564;7.272;2023-03-31T09:44:42;14.30;99.90
831;DHT22;397;50.564;7.272;2023-03-31T09:47:13;14.10;99.90
831;DHT22;397;50.564;7.272;2023-03-31T09:49:40;14.00;99.90
831;DHT22;397;50.564;7.272;2023-03-31T09:52:30;13.70;99.90
831;DHT22;397;50.564;7.272;2023-03-31T09:55:09;13.60;99.90
831;DHT22;397;50.564;7.272;2023-03-31T09:57:37;13.70;99.90
831;DHT22;397;50.564;7.272;2023-03-31T10:02:48;13.40;99.90
831;DHT22;397;50.564;7.272;2023-03-31T10:05:35;13.50;99.90
831;DHT22;397;50.564;7.272;2023-03-31T10:08:33;13.40;99.90
831;DHT22;397;50.564;7.272;2023-03-31T10:13:46;13.40;99.90
831;DHT22;397;50.564;7.272;2023-03-31T10:16:27;13.20;99.90
831;DHT22;397;50.564;7.272;2023-03-31T10:18:47;13.40;99.90
831;DHT22;397;50.564;7.272;2023-03-31T10:21:20;13.60;99.90
831;DHT22;397;50.564;7.272;2023-03-31T10:23:49;13.70;99.90
831;DHT22;397;50.564;7.272;2023-03-31T10:26:19;13.70;99.90
831;DHT22;397;50.564;7.272;2023-03-31T10:28:49;14.00;99.90
831;DHT22;397;50.564;7.272;2023-03-31T10:31:20;14.40;99.90
831;DHT22;397;50.564;7.272;2023-03-31T10:33:49;14.30;99.90
831;DHT22;397;50.564;7.272;2023-03-31T10:36:26;14.40;99.90
831;DHT22;397;50.564;7.272;2023-03-31T10:38:55;14.80;99.90
831;DHT22;397;50.564;7.272;2023-03-31T10:41:29;14.80;99.90
831;DHT22;397;50.564;7.272;2023-03-31T10:43:59;15.10;99.90
831;DHT22;397;50.564;7.272;2023-03-31T10:46:42;15.00;99.90
831;DHT22;397;50.564;7.272;2023-03-31T10:49:25;14.90;99.90
831;DHT22;397;50.564;7.272;2023-03-31T10:51:54;15.00;99.90
831;DHT22;397;50.564;7.272;2023-03-31T10:54:22;14.80;99.90
831;DHT22;397;50.564;7.272;2023-03-31T10:56:55;14.80;99.90
831;DHT22;397;50.564;7.272;2023-03-31T11:00:09;14.80;99.90
831;DHT22;397;50.564;7.272;2023-03-31T11:10:55;14.40;99.90
831;DHT22;397;50.564;7.272;2023-03-31T11:13:25;14.50;99.90
831;DHT22;397;50.564;7.272;2023-03-31T11:16:12;14.60;99.90
831;DHT22;397;50.564;7.272;2023-03-31T11:21:48;15.50;99.90
831;DHT22;397;50.564;7.272;2023-03-31T11:27:15;15.70;99.90
831;DHT22;397;50.564;7.272;2023-03-31T11:29:47;15.80;99.90
831;DHT22;397;50.564;7.272;2023-03-31T11:32:42;15.50;99.90
831;DHT22;397;50.564;7.272;2023-03-31T11:35:33;15.50;99.90
831;DHT22;397;50.564;7.272;2023-03-31T11:38:14;15.60;99.90
831;DHT22;397;50.564;7.272;2023-03-31T11:40:57;15.80;99.90
831;DHT22;397;50.564;7.272;2023-03-31T11:43:35;15.50;99.90
831;DHT22;397;50.564;7.272;2023-03-31T11:46:09;15.20;99.90
831;DHT22;397;50.564;7.272;2023-03-31T11:53:57;15.00;99.90
831;DHT22;397;50.564;7.272;2023-03-31T11:56:36;14.90;99.90
831;DHT22;397;50.564;7.272;2023-03-31T11:58:57;14.70;99.90
831;DHT22;397;50.564;7.272;2023-03-31T12:04:31;14.40;99.90
831;DHT22;397;50.564;7.272;2023-03-31T12:07:00;14.60;99.90
831;DHT22;397;50.564;7.272;2023-03-31T12:10:04;14.70;99.90
831;DHT22;397;50.564;7.272;2023-03-31T12:12:24;15.00;99.90
831;DHT22;397;50.564;7.272;2023-03-31T12:15:09;15.20;99.90
831;DHT22;397;50.564;7.272;2023-03-31T12:17:35;15.30;99.90
831;DHT22;397;50.564;7.272;2023-03-31T12:20:05;15.20;99.90
831;DHT22;397;50.564;7.272;2023-03-31T12:22:42;15.00;99.90
831;DHT22;397;50.564;7.272;2023-03-31T12:25:11;14.60;99.90
831;DHT22;397;50.564;7.272;2023-03-31T12:27:42;14.10;99.90
831;DHT22;397;50.564;7.272;2023-03-31T12:30:12;13.50;99.90
831;DHT22;397;50.564;7.272;2023-03-31T12:32:46;13.40;99.90
831;DHT22;397;50.564;7.272;2023-03-31T12:35:25;13.60;99.90
831;DHT22;397;50.564;7.272;2023-03-31T12:40:49;14.40;99.90
831;DHT22;397;50.564;7.272;2023-03-31T12:51:55;14.60;99.90
831;DHT22;397;50.564;7.272;2023-03-31T12:57:24;14.50;99.90
831;DHT22;397;50.564;7.272;2023-03-31T13:00:19;14.70;99.90
831;DHT22;397;50.564;7.272;2023-03-31T13:02:48;14.90;99.90
831;DHT22;397;50.564;7.272;2023-03-31T13:08:07;14.90;99.90
831;DHT22;397;50.564;7.272;2023-03-31T13:10:56;15.10;99.90
831;DHT22;397;50.564;7.272;2023-03-31T13:13:24;15.20;99.90
831;DHT22;397;50.564;7.272;2023-03-31T13:15:59;15.10;99.90
831;DHT22;397;50.564;7.272;2023-03-31T13:18:23;15.10;99.90
831;DHT22;397;50.564;7.272;2023-03-31T13:21:01;15.10;99.90
831;DHT22;397;50.564;7.272;2023-03-31T13:23:33;15.20;99.90
831;DHT22;397;50.564;7.272;2023-03-31T13:26:01;15.20;99.90
831;DHT22;397;50.564;7.272;2023-03-31T13:28:39;15.20;99.90
831;DHT22;397;50.564;7.272;2023-03-31T13:31:12;15.20;99.90
831;DHT22;397;50.564;7.272;2023-03-31T13:33:54;15.00;99.90
831;DHT22;397;50.564;7.272;2023-03-31T13:48:13;14.90;99.90
831;DHT22;397;50.564;7.272;2023-03-31T13:50:59;15.10;99.90
831;DHT22;397;50.564;7.272;2023-03-31T13:53:38;15.20;99.90
831;DHT22;397;50.564;7.272;2023-03-31T14:07:19;15.10;99.90
831;DHT22;397;50.564;7.272;2023-03-31T14:09:50;14.80;99.90
831;DHT22;397;50.564;7.272;2023-03-31T14:12:31;14.10;99.90
831;DHT22;397;50.564;7.272;2023-03-31T14:14:53;13.70;99.90
831;DHT22;397;50.564;7.272;2023-03-31T14:17:27;13.50;99.90
831;DHT22;397;50.564;7.272;2023-03-31T14:22:52;13.50;99.90
831;DHT22;397;50.564;7.272;2023-03-31T14:36:58;13.90;99.90
831;DHT22;397;50.564;7.272;2023-03-31T14:39:26;14.20;99.90
831;DHT22;397;50.564;7.272;2023-03-31T14:41:58;14.20;99.90
831;DHT22;397;50.564;7.272;2023-03-31T14:44:25;14.40;99.90
831;DHT22;397;50.564;7.272;2023-03-31T14:46:57;14.50;99.90
831;DHT22;397;50.564;7.272;2023-03-31T14:49:27;14.60;99.90
831;DHT22;397;50.564;7.272;2023-03-31T14:52:03;14.50;99.90
831;DHT22;397;50.564;7.272;2023-03-31T14:54:25;14.50;99.90
831;DHT22;397;50.564;7.272;2023-03-31T14:56:55;14.60;99.90
831;DHT22;397;50.564;7.272;2023-03-31T14:59:27;14.60;99.90
831;DHT22;397;50.564;7.272;2023-03-31T15:01:59;14.70;99.90
831;DHT22;397;50.564;7.272;2023-03-31T15:04:30;14.70;99.90
831;DHT22;397;50.564;7.272;2023-03-31T15:06:59;14.80;99.90
831;DHT22;397;50.564;7.272;2023-03-31T15:09:29;15.00;99.90
831;DHT22;397;50.564;7.272;2023-03-31T15:12:06;14.90;99.90
831;DHT22;397;50.564;7.272;2023-03-31T15:14:39;15.00;99.90
831;DHT22;397;50.564;7.272;2023-03-31T15:17:05;14.90;99.90
831;DHT22;397;50.564;7.272;2023-03-31T15:19:34;14.90;99.90
831;DHT22;397;50.564;7.272;2023-03-31T15:22:10;14.80;99.90
831;DHT22;397;50.564;7.272;2023-03-31T15:24:39;14.80;99.90
831;DHT22;397;50.564;7.272;2023-03-31T15:27:17;14.80;99.90
831;DHT22;397;50.564;7.272;2023-03-31T15:29:48;14.80;99.90
831;DHT22;397;50.564;7.272;2023-03-31T15:32:25;14.80;99.90
831;DHT22;397;50.564;7.272;2023-03-31T15:34:53;14.80;99.90
831;DHT22;397;50.564;7.272;2023-03-31T15:37:34;14.80;99.90
831;DHT22;397;50.564;7.272;2023-03-31T15:39:59;14.80;99.90
831;DHT22;397;50.564;7.272;2023-03-31T15:42:28;14.70;99.90
831;DHT22;397;50.564;7.272;2023-03-31T15:45:02;14.70;99.90
831;DHT22;397;50.564;7.272;2023-03-31T15:47:28;14.70;99.90
831;DHT22;397;50.564;7.272;2023-03-31T15:50:09;14.70;99.90
831;DHT22;397;50.564;7.272;2023-03-31T15:52:49;14.60;99.90
831;DHT22;397;50.564;7.272;2023-03-31T15:55:31;14.70;99.90
831;DHT22;397;50.564;7.272;2023-03-31T15:58:00;14.60;99.90
831;DHT22;397;50.564;7.272;2023-03-31T16:03:12;14.60;99.90
831;DHT22;397;50.564;7.272;2023-03-31T16:06:13;14.50;99.90
831;DHT22;397;50.564;7.272;2023-03-31T16:08:20;14.50;99.90
831;DHT22;397;50.564;7.272;2023-03-31T16:10:43;14.40;99.90
831;DHT22;397;50.564;7.272;2023-03-31T16:13:15;14.20;99.90
831;DHT22;397;50.564;7.272;2023-03-31T16:15:44;14.30;99.90
831;DHT22;397;50.564;7.272;2023-03-31T16:18:17;14.30;99.90
831;DHT22;397;50.564;7.272;2023-03-31T16:20:51;14.20;99.90
831;DHT22;397;50.564;7.272;2023-03-31T16:23:27;14.10;99.90
831;DHT22;397;50.564;7.272;2023-03-31T16:25:55;14.10;99.90
831;DHT22;397;50.564;7.272;2023-03-31T16:28:25;14.00;99.90
831;DHT22;397;50.564;7.272;2023-03-31T16:30:54;14.00;99.90
831;DHT22;397;50.564;7.272;2023-03-31T16:33:22;13.90;99.90
831;DHT22;397;50.564;7.272;2023-03-31T16:35:51;13.90;99.90
831;DHT22;397;50.564;7.272;2023-03-31T16:38:22;13.90;99.90
831;DHT22;397;50.564;7.272;2023-03-31T16:40:52;13.90;99.90
831;DHT22;397;50.564;7.272;2023-03-31T16:43:28;13.90;99.90
831;DHT22;397;50.564;7.272;2023-03-31T16:45:58;13.90;99.90
831;DHT22;397;50.564;7.272;2023-03-31T16:48:28;13.90;99.90
831;DHT22;397;50.564;7.272;2023-03-31T16:50:57;13.80;99.90
831;DHT22;397;50.564;7.272;2023-03-31T16:53:27;13.90;99.90
831;DHT22;397;50.564;7.272;2023-03-31T16:55:56;13.90;99.90
831;DHT22;397;50.564;7.272;2023-03-31T16:58:23;13.90;99.90
831;DHT22;397;50.564;7.272;2023-03-31T17:00:52;14.00;99.90
831;DHT22;397;50.564;7.272;2023-03-31T17:03:20;13.90;99.90
831;DHT22;397;50.564;7.272;2023-03-31T17:05:49;13.90;99.90
831;DHT22;397;50.564;7.272;2023-03-31T17:08:20;14.00;99.90
831;DHT22;397;50.564;7.272;2023-03-31T17:11:09;13.90;99.90
831;DHT22;397;50.564;7.272;2023-03-31T17:13:33;13.90;99.90
831;DHT22;397;50.564;7.272;2023-03-31T17:16:01;14.00;99.90
831;DHT22;397;50.564;7.272;2023-03-31T17:18:28;14.00;99.90
831;DHT22;397;50.564;7.272;2023-03-31T17:21:16;13.90;99.90
831;DHT22;397;50.564;7.272;2023-03-31T17:23:30;13.90;99.90
831;DHT22;397;50.564;7.272;2023-03-31T17:25:58;13.90;99.90
831;DHT22;397;50.564;7.272;2023-03-31T17:28:26;13.80;99.90
831;DHT22;397;50.564;7.272;2023-03-31T17:30:54;13.90;99.90
831;DHT22;397;50.564;7.272;2023-03-31T17:33:22;13.80;99.90
831;DHT22;397;50.564;7.272;2023-03-31T17:35:49;13.80;99.90
831;DHT22;397;50.564;7.272;2023-03-31T17:38:17;13.80;99.90
831;DHT22;397;50.564;7.272;2023-03-31T17:40:46;13.70;99.90
831;DHT22;397;50.564;7.272;2023-03-31T17:43:13;13.70;99.90
831;DHT22;397;50.564;7.272;2023-03-31T17:45:41;13.80;99.90
831;DHT22;397;50.564;7.272;2023-03-31T17:48:09;13.70;99.90
831;DHT22;397;50.564;7.272;2023-03-31T17:50:37;13.50;99.90
831;DHT22;397;50.564;7.272;2023-03-31T17:53:04;13.50;99.90
831;DHT22;397;50.564;7.272;2023-03-31T17:55:35;13.60;99.90
831;DHT22;397;50.564;7.272;2023-03-31T17:58:04;13.50;99.90
831;DHT22;397;50.564;7.272;2023-03-31T18:00:33;13.50;99.90
831;DHT22;397;50.564;7.272;2023-03-31T18:03:01;13.50;99.90
831;DHT22;397;50.564;7.272;2023-03-31T18:05:29;13.40;99.90
831;DHT22;397;50.564;7.272;2023-03-31T18:07:58;13.30;99.90
831;DHT22;397;50.564;7.272;2023-03-31T18:10:26;13.30;99.90
831;DHT22;397;50.564;7.272;2023-03-31T18:12:53;13.40;99.90
831;DHT22;397;50.564;7.272;2023-03-31T18:15:20;13.30;99.90
831;DHT22;397;50.564;7.272;2023-03-31T18:17:48;13.20;99.90
831;DHT22;397;50.564;7.272;2023-03-31T18:20:16;13.20;99.90
831;DHT22;397;50.564;7.272;2023-03-31T18:22:43;13.10;99.90
831;DHT22;397;50.564;7.272;2023-03-31T18:25:11;13.10;99.90
831;DHT22;397;50.564;7.272;2023-03-31T18:27:38;13.00;99.90
831;DHT22;397;50.564;7.272;2023-03-31T18:30:06;12.90;99.90
831;DHT22;397;50.564;7.272;2023-03-31T18:32:34;12.90;99.90
831;DHT22;397;50.564;7.272;2023-03-31T18:35:02;12.70;99.90
831;DHT22;397;50.564;7.272;2023-03-31T18:37:29;12.50;99.90
831;DHT22;397;50.564;7.272;2023-03-31T18:39:57;12.50;99.90
831;DHT22;397;50.564;7.272;2023-03-31T18:42:24;12.20;99.90
831;DHT22;397;50.564;7.272;2023-03-31T18:44:52;12.10;99.90
831;DHT22;397;50.564;7.272;2023-03-31T18:47:20;12.20;99.90
831;DHT22;397;50.564;7.272;2023-03-31T18:49:47;12.20;99.90
831;DHT22;397;50.564;7.272;2023-03-31T18:52:17;12.10;99.90
831;DHT22;397;50.564;7.272;2023-03-31T18:54:44;12.00;99.90
831;DHT22;397;50.564;7.272;2023-03-31T18:57:12;12.00;99.90
831;DHT22;397;50.564;7.272;2023-03-31T18:59:39;12.00;99.90
831;DHT22;397;50.564;7.272;2023-03-31T19:02:08;12.00;99.90